Time;durP1;ratioP1;P1;durP2;ratioP2;P2;SDS_P1;SDS_P2;PMS_P1;PMS_P2;Temp;Humidity;BMP_temperature;BMP_pressure;BME280_temperature;BME280_humidity;BME280_pressure;Samples;Min_cycle;Max_cycle;Signal;HPM_P1;HPM_P2
2023/05/20 00:00:02;;;;;;;11.55;3.67;;;;;;;12.62;75.77;102299.91;4992416;28;20030;-74
2023/05/20 00:02:28;;;;;;;8.05;3.17;;;;;;;12.56;75.39;102292.59;4993254;28;20053;-75
2023/05/20 00:04:53;;;;;;;9.25;3.15;;;;;;;12.50;75.74;102296.81;4993213;28;20034;-75
2023/05/20 00:07:19;;;;;;;11.73;3.80;;;;;;;12.56;76.37;102302.47;4993230;28;20433;-75
2023/05/20 00:09:44;;;;;;;9.35;3.03;;;;;;;12.46;76.78;102300.00;4975506;28;20576;-75
2023/05/20 00:12:10;;;;;;;8.20;3.78;;;;;;;12.44;77.45;102293.97;4993166;28;20487;-75
2023/05/20 00:14:35;;;;;;;9.82;3.67;;;;;;;12.46;77.42;102300.81;4975648;28;20068;-75
2023/05/20 00:17:00;;;;;;;10.15;3.38;;;;;;;12.36;77.77;102286.81;4974529;28;20383;-75
2023/05/20 00:19:26;;;;;;;8.38;3.28;;;;;;;12.33;78.67;102287.16;4956954;28;20034;-75
2023/05/20 00:21:51;;;;;;;10.52;3.50;;;;;;;12.33;78.65;102299.72;4974177;28;20034;-75
2023/05/20 00:24:17;;;;;;;11.73;4.18;;;;;;;12.25;78.50;102289.88;4956757;28;20031;-75
2023/05/20 00:26:42;;;;;;;8.38;3.40;;;;;;;12.19;79.98;102291.38;4974222;28;20101;-75
2023/05/20 00:29:07;;;;;;;9.70;3.80;;;;;;;12.22;79.20;102304.41;4974009;28;20030;-75
2023/05/20 00:31:33;;;;;;;9.00;4.15;;;;;;;12.21;80.05;102302.75;4974112;28;20540;-75
2023/05/20 00:33:58;;;;;;;4.97;3.63;;;;;;;12.16;80.17;102288.25;4956739;28;20034;-75
2023/05/20 00:36:23;;;;;;;9.90;3.90;;;;;;;12.12;79.88;102287.72;4973935;28;20070;-75
2023/05/20 00:38:49;;;;;;;11.30;3.70;;;;;;;12.17;79.35;102290.72;4940573;28;20035;-75
2023/05/20 00:41:14;;;;;;;8.38;4.38;;;;;;;12.11;80.03;102295.94;4963798;28;20022;-76
2023/05/20 00:43:40;;;;;;;7.20;3.80;;;;;;;12.06;79.73;102297.28;4942825;28;20111;-75
2023/05/20 00:46:06;;;;;;;11.70;4.22;;;;;;;12.06;80.57;102296.44;4975137;28;20084;-75
2023/05/20 00:48:40;;;;;;;11.18;4.57;;;;;;;11.95;81.13;102286.13;4992277;28;20034;-75
2023/05/20 00:51:06;;;;;;;6.53;3.85;;;;;;;12.00;80.87;102283.78;4992337;28;20019;-75
2023/05/20 00:53:33;;;;;;;6.38;3.42;;;;;;;11.97;81.10;102284.09;4976301;28;20724;-75
2023/05/20 00:55:59;;;;;;;8.23;4.15;;;;;;;11.92;82.19;102289.09;4940047;28;20027;-75
2023/05/20 00:58:24;;;;;;;9.77;4.57;;;;;;;11.92;81.59;102284.63;4973746;28;20438;-75
2023/05/20 01:00:50;;;;;;;9.15;4.03;;;;;;;11.85;82.52;102281.75;4956296;28;20125;-75
2023/05/20 01:03:16;;;;;;;7.80;3.55;;;;;;;11.84;81.64;102281.91;4956065;28;20085;-74
2023/05/20 01:05:42;;;;;;;9.38;4.28;;;;;;;11.84;82.26;102277.41;4955997;28;20042;-74
2023/05/20 01:08:07;;;;;;;8.27;3.80;;;;;;;11.78;82.21;102282.59;4940012;28;20015;-75
2023/05/20 01:10:36;;;;;;;10.93;4.50;;;;;;;11.84;82.62;102287.25;4939589;28;20085;-75
2023/05/20 01:13:07;;;;;;;4.35;3.47;;;;;;;11.72;83.30;102281.44;4973331;28;20507;-75
2023/05/20 01:15:33;;;;;;;7.43;4.00;;;;;;;11.68;83.21;102274.75;4955899;28;20034;-74
2023/05/20 01:18:04;;;;;;;9.30;3.50;;;;;;;11.61;84.00;102277.28;4955796;28;20027;-75
2023/05/20 01:20:31;;;;;;;7.43;3.13;;;;;;;11.65;83.41;102283.09;4973291;28;20101;-75
2023/05/20 01:22:57;;;;;;;13.73;4.22;;;;;;;11.58;84.62;102277.63;4973158;28;20031;-75
2023/05/20 01:25:26;;;;;;;8.82;3.50;;;;;;;11.54;84.64;102268.25;4955862;28;20118;-75
2023/05/20 01:27:53;;;;;;;14.80;4.90;;;;;;;11.47;85.06;102269.09;4955681;28;20039;-74
2023/05/20 01:30:20;;;;;;;9.77;3.50;;;;;;;11.53;84.86;102273.78;4974454;28;20561;-75
2023/05/20 01:33:03;;;;;;;8.82;3.90;;;;;;;11.50;84.68;102268.75;4991618;28;20111;-74
2023/05/20 01:35:28;;;;;;;8.07;3.97;;;;;;;11.44;85.36;102272.09;4991594;28;20033;-74
2023/05/20 01:37:56;;;;;;;7.38;4.50;;;;;;;11.41;86.19;102275.94;4958003;28;20030;-75
2023/05/20 01:40:22;;;;;;;7.80;4.05;;;;;;;11.40;85.90;102275.09;4991527;28;20034;-74
2023/05/20 01:42:51;;;;;;;7.47;4.25;;;;;;;11.35;86.42;102266.75;4973749;28;20539;-74
2023/05/20 01:45:17;;;;;;;13.52;4.13;;;;;;;11.34;86.49;102269.59;4973591;28;20034;-75
2023/05/20 01:47:44;;;;;;;5.85;3.90;;;;;;;11.30;86.66;102255.75;4991213;28;20031;-74
2023/05/20 01:50:10;;;;;;;10.00;3.80;;;;;;;11.29;86.84;102258.56;4991231;28;20033;-74
2023/05/20 01:52:35;;;;;;;7.53;3.92;;;;;;;11.26;86.97;102253.56;4973388;28;20085;-75
2023/05/20 01:55:01;;;;;;;9.35;3.97;;;;;;;11.21;87.38;102255.88;4991561;28;20030;-74
2023/05/20 01:57:26;;;;;;;12.25;4.57;;;;;;;11.24;87.73;102267.09;4973556;28;20046;-75
2023/05/20 01:59:51;;;;;;;13.00;4.82;;;;;;;11.22;87.35;102262.91;4957562;28;20026;-75
2023/05/20 02:02:17;;;;;;;7.75;3.75;;;;;;;11.19;87.74;102258.75;4991064;28;20022;-74
2023/05/20 02:04:47;;;;;;;7.95;4.72;;;;;;;11.19;88.23;102254.22;4941362;28;20136;-75
2023/05/20 02:07:13;;;;;;;9.38;4.30;;;;;;;11.16;88.87;102262.59;4973296;28;20486;-75
2023/05/20 02:09:39;;;;;;;10.05;4.30;;;;;;;11.12;88.99;102257.72;4973187;28;20045;-75
2023/05/20 02:12:05;;;;;;;11.65;4.03;;;;;;;11.13;89.67;102257.59;4957100;28;20034;-75
2023/05/20 02:14:30;;;;;;;10.75;3.63;;;;;;;11.11;89.14;102256.91;4973309;28;20392;-75
2023/05/20 02:16:56;;;;;;;11.52;5.13;;;;;;;11.03;88.75;102243.53;4972996;28;20042;-75
2023/05/20 02:19:22;;;;;;;12.38;4.65;;;;;;;11.08;89.03;102245.69;4973260;28;20045;-74
2023/05/20 02:21:48;;;;;;;9.85;4.20;;;;;;;11.02;89.76;102249.88;4948891;28;20113;-75
2023/05/20 02:24:14;;;;;;;11.30;4.63;;;;;;;11.04;89.94;102250.53;4954787;28;20037;-75
2023/05/20 02:26:40;;;;;;;10.95;4.20;;;;;;;11.03;90.33;102253.38;4954678;28;20035;-75
2023/05/20 02:29:06;;;;;;;11.25;3.97;;;;;;;11.04;90.35;102255.06;4971908;28;20030;-75
2023/05/20 02:31:31;;;;;;;10.20;4.47;;;;;;;10.95;91.23;102238.16;4971942;28;20402;-75
2023/05/20 02:33:57;;;;;;;10.65;4.80;;;;;;;10.99;91.16;102249.38;4954559;28;20035;-75
2023/05/20 02:36:22;;;;;;;9.35;3.70;;;;;;;10.96;91.04;102253.22;4954411;28;20035;-75
2023/05/20 02:38:47;;;;;;;12.57;4.93;;;;;;;10.97;91.24;102247.69;4971795;28;20034;-75
2023/05/20 02:41:13;;;;;;;11.25;4.65;;;;;;;10.97;91.88;102249.53;4938403;28;20543;-75
2023/05/20 02:43:39;;;;;;;8.27;3.60;;;;;;;10.99;91.10;102252.03;4938346;28;20093;-75
2023/05/20 02:46:05;;;;;;;11.18;4.25;;;;;;;10.96;91.71;102259.38;4954207;28;20061;-75
2023/05/20 02:48:31;;;;;;;11.68;5.15;;;;;;;10.88;92.32;102243.34;4954232;28;20952;-75
2023/05/20 02:50:58;;;;;;;8.23;4.35;;;;;;;10.86;92.65;102241.84;4954007;28;20394;-74
2023/05/20 02:53:23;;;;;;;11.57;5.50;;;;;;;10.86;92.79;102249.84;4971438;28;20058;-75
2023/05/20 02:55:49;;;;;;;10.25;4.40;;;;;;;10.88;93.01;102256.69;4971610;28;20026;-75
2023/05/20 02:58:16;;;;;;;13.85;5.82;;;;;;;10.84;93.57;102242.00;4971476;28;20062;-75
2023/05/20 03:00:41;;;;;;;6.90;4.15;;;;;;;10.85;93.41;102246.34;4971513;28;20037;-75
2023/05/20 03:03:08;;;;;;;15.13;4.35;;;;;;;10.83;93.85;102242.19;4954065;28;20537;-75
2023/05/20 03:05:37;;;;;;;8.45;4.85;;;;;;;10.79;93.92;102241.66;4938159;28;20037;-75
2023/05/20 03:08:08;;;;;;;7.40;3.53;;;;;;;10.80;94.00;102242.50;4971061;28;20505;-75
2023/05/20 03:10:34;;;;;;;6.68;4.07;;;;;;;10.68;94.17;102229.47;4953690;28;20023;-75
2023/05/20 03:12:59;;;;;;;7.65;4.68;;;;;;;10.70;94.64;102227.47;4954049;28;20126;-75
2023/05/20 03:15:25;;;;;;;6.25;3.47;;;;;;;10.71;94.64;102238.97;4953758;28;20462;-75
2023/05/20 03:17:50;;;;;;;8.00;4.28;;;;;;;10.67;95.17;102242.97;4971321;28;20496;-75
2023/05/20 03:20:16;;;;;;;10.05;4.45;;;;;;;10.63;95.11;102239.78;4953737;28;20407;-75
2023/05/20 03:22:41;;;;;;;8.40;4.53;;;;;;;10.64;95.04;102241.47;4937924;28;20042;-75
2023/05/20 03:25:08;;;;;;;8.77;4.47;;;;;;;10.58;95.26;102235.94;4953486;28;20838;-75
2023/05/20 03:27:35;;;;;;;8.55;5.07;;;;;;;10.59;95.39;102242.97;4937543;28;20085;-75
2023/05/20 03:30:02;;;;;;;9.07;5.28;;;;;;;10.55;96.00;102239.75;4970978;28;20054;-75
2023/05/20 03:32:27;;;;;;;8.40;4.32;;;;;;;10.51;96.34;102241.09;4970895;28;20035;-75
2023/05/20 03:34:53;;;;;;;12.43;4.15;;;;;;;10.50;96.28;102248.25;4971022;28;20034;-75
2023/05/20 03:37:18;;;;;;;11.98;5.22;;;;;;;10.42;96.32;102242.88;4937618;28;20042;-75
2023/05/20 03:39:44;;;;;;;12.85;4.72;;;;;;;10.35;96.40;102230.34;4953449;28;20039;-75
2023/05/20 03:42:09;;;;;;;8.63;4.57;;;;;;;10.47;96.62;102247.75;4953542;28;20090;-75
2023/05/20 03:44:35;;;;;;;9.75;4.88;;;;;;;10.39;97.08;102237.88;4953462;28;20031;-75
2023/05/20 03:47:00;;;;;;;8.18;3.90;;;;;;;10.45;96.70;102247.91;4937317;28;20037;-76
2023/05/20 03:49:26;;;;;;;10.38;4.35;;;;;;;10.44;96.95;102245.41;4970768;28;20061;-75
2023/05/20 03:51:51;;;;;;;12.35;6.03;;;;;;;10.43;97.22;102249.91;4937437;28;20050;-75
2023/05/20 03:54:17;;;;;;;5.88;3.67;;;;;;;10.40;97.30;102246.72;4956992;28;20058;-76
2023/05/20 03:56:42;;;;;;;9.48;4.80;;;;;;;10.40;97.88;102247.56;4971806;28;20430;-75
2023/05/20 03:59:08;;;;;;;10.15;5.03;;;;;;;10.40;97.81;102247.56;4971643;28;20034;-75
2023/05/20 04:01:34;;;;;;;10.05;4.57;;;;;;;10.41;97.70;102243.88;4955591;28;20092;-75
2023/05/20 04:03:59;;;;;;;8.77;4.63;;;;;;;10.34;98.09;102234.03;4955487;28;20042;-75
2023/05/20 04:06:25;;;;;;;28.38;6.95;;;;;;;10.41;97.95;102232.41;4955601;28;20117;-75
2023/05/20 04:08:52;;;;;;;10.90;6.13;;;;;;;10.37;98.16;102234.53;4971640;28;20031;-75
2023/05/20 04:11:17;;;;;;;11.77;5.88;;;;;;;10.37;98.64;102236.38;4971800;28;20041;-75
2023/05/20 04:13:43;;;;;;;9.05;4.75;;;;;;;10.39;98.73;102234.38;4971570;28;20030;-75
2023/05/20 04:16:08;;;;;;;9.23;4.07;;;;;;;10.36;99.11;102230.19;4989239;28;20363;-75
2023/05/20 04:18:37;;;;;;;11.48;5.32;;;;;;;10.36;99.03;102232.88;4989028;28;20113;-75
2023/05/20 04:21:03;;;;;;;10.10;4.65;;;;;;;10.38;98.44;102240.72;4972152;28;20081;-75
2023/05/20 04:23:29;;;;;;;10.65;5.15;;;;;;;10.45;99.11;102249.72;4988965;28;20035;-75
2023/05/20 04:25:54;;;;;;;12.20;5.65;;;;;;;10.50;98.39;102244.75;4989055;28;20507;-75
2023/05/20 04:28:22;;;;;;;10.80;4.50;;;;;;;10.45;98.62;102237.25;4955300;28;20486;-75
2023/05/20 04:30:48;;;;;;;9.38;4.30;;;;;;;10.54;99.36;102251.44;4956059;28;20064;-75
2023/05/20 04:33:15;;;;;;;15.70;4.68;;;;;;;10.53;98.93;102245.28;4989022;28;20038;-75
2023/05/20 04:35:40;;;;;;;11.65;4.63;;;;;;;10.62;98.72;102243.47;4971380;28;20092;-75
2023/05/20 04:38:06;;;;;;;10.35;4.65;;;;;;;10.58;99.20;102233.25;4971211;28;20038;-75
2023/05/20 04:40:31;;;;;;;11.48;4.22;;;;;;;10.70;98.88;102246.16;4955303;28;20027;-75
2023/05/20 04:42:59;;;;;;;12.95;4.72;;;;;;;10.72;99.50;102243.31;4988709;28;20057;-75
2023/05/20 04:45:25;;;;;;;12.27;5.15;;;;;;;10.83;98.38;102248.34;4990590;28;20026;-76
2023/05/20 04:47:52;;;;;;;12.25;4.72;;;;;;;10.88;98.59;102242.53;4974748;28;20041;-75
2023/05/20 04:50:18;;;;;;;12.20;5.60;;;;;;;11.03;98.32;102240.03;4958787;28;20027;-75
2023/05/20 04:52:44;;;;;;;9.93;4.13;;;;;;;11.69;96.36;102246.19;4992291;28;20033;-76
2023/05/20 04:55:10;;;;;;;13.50;6.05;;;;;;;12.21;91.80;102243.09;4971650;28;20430;-76
2023/05/20 04:57:40;;;;;;;9.60;4.65;;;;;;;12.17;91.73;102239.91;4954244;28;20039;-75
2023/05/20 05:00:08;;;;;;;9.10;4.70;;;;;;;12.13;91.31;102248.44;4952869;28;20071;-76
2023/05/20 05:02:34;;;;;;;7.50;4.43;;;;;;;11.99;92.27;102237.44;4972570;28;20038;-75
2023/05/20 05:05:00;;;;;;;9.85;4.95;;;;;;;11.98;92.00;102234.97;4972829;28;20069;-75
2023/05/20 05:07:25;;;;;;;10.25;4.60;;;;;;;11.96;92.93;102245.00;4940507;28;20462;-75
2023/05/20 05:09:52;;;;;;;8.52;4.13;;;;;;;11.82;93.45;102225.13;4954134;28;20027;-75
2023/05/20 05:12:17;;;;;;;12.20;5.20;;;;;;;11.88;93.45;102239.66;4955839;28;20109;-75
2023/05/20 05:14:43;;;;;;;12.35;5.75;;;;;;;11.82;93.81;102217.09;4955842;28;20573;-75
2023/05/20 05:17:08;;;;;;;12.82;5.80;;;;;;;11.84;93.42;102217.75;4972557;28;20031;-75
2023/05/20 05:19:34;;;;;;;10.93;5.45;;;;;;;11.94;93.80;102233.63;4972234;28;20796;-76
2023/05/20 05:21:59;;;;;;;11.30;5.80;;;;;;;12.02;93.05;102239.78;4971613;28;20026;-75
2023/05/20 05:24:24;;;;;;;7.43;4.50;;;;;;;12.05;93.63;102223.41;4972419;28;20027;-75
2023/05/20 05:26:53;;;;;;;11.77;5.22;;;;;;;12.28;92.26;102226.13;4971995;28;20113;-75
2023/05/20 05:29:19;;;;;;;12.32;4.68;;;;;;;12.57;90.62;102221.16;4972114;28;20046;-75
2023/05/20 05:31:44;;;;;;;11.75;5.70;;;;;;;12.74;89.56;102220.06;4963529;28;20035;-76
2023/05/20 05:34:10;;;;;;;12.40;5.18;;;;;;;13.03;88.18;102229.22;4972234;28;20069;-75
2023/05/20 05:36:35;;;;;;;14.32;6.43;;;;;;;13.04;88.58;102217.50;4954726;28;20126;-75
2023/05/20 05:39:00;;;;;;;10.43;4.72;;;;;;;12.94;87.18;102215.91;4955686;28;20552;-75
2023/05/20 05:41:26;;;;;;;10.80;4.35;;;;;;;12.87;87.34;102230.19;4970793;28;20034;-75
2023/05/20 05:43:53;;;;;;;12.23;5.63;;;;;;;12.80;88.05;102235.41;4971860;28;20109;-75
2023/05/20 05:46:18;;;;;;;6.45;4.22;;;;;;;12.80;88.41;102240.75;4971561;28;20093;-75
2023/05/20 05:48:47;;;;;;;9.93;4.95;;;;;;;12.81;87.54;102221.03;4971855;28;20501;-75
2023/05/20 05:51:13;;;;;;;12.15;5.50;;;;;;;12.81;88.43;102214.81;4954749;28;20035;-75
2023/05/20 05:53:39;;;;;;;10.30;4.82;;;;;;;12.82;87.36;102208.47;4954098;28;20114;-76
2023/05/20 05:56:04;;;;;;;9.88;4.70;;;;;;;12.96;86.25;102220.25;4969078;28;20445;-75
2023/05/20 05:58:30;;;;;;;22.13;5.88;;;;;;;13.07;86.61;102223.34;4971587;28;20497;-75
2023/05/20 06:00:56;;;;;;;5.57;4.35;;;;;;;13.13;85.65;102219.94;4953350;28;20077;-75
2023/05/20 06:03:21;;;;;;;6.60;4.28;;;;;;;13.26;85.94;102232.75;4935660;28;20502;-75
2023/05/20 06:05:47;;;;;;;9.15;4.88;;;;;;;13.33;85.19;102224.81;4953099;28;20090;-75
2023/05/20 06:08:12;;;;;;;11.10;4.47;;;;;;;13.36;83.21;102225.31;4953160;28;20032;-76
2023/05/20 06:10:38;;;;;;;7.30;4.53;;;;;;;13.41;84.07;102229.28;4971586;28;20035;-75
2023/05/20 06:13:03;;;;;;;11.95;4.72;;;;;;;13.41;83.35;102218.56;4971439;28;20030;-75
2023/05/20 06:15:28;;;;;;;10.88;4.07;;;;;;;13.46;83.82;102225.03;4971311;28;20058;-75
2023/05/20 06:17:54;;;;;;;7.57;4.55;;;;;;;13.44;83.31;102210.16;4971425;28;20061;-75
2023/05/20 06:20:19;;;;;;;10.15;5.05;;;;;;;13.68;82.57;102230.53;4970991;28;20030;-75
2023/05/20 06:22:46;;;;;;;7.40;3.75;;;;;;;13.71;81.64;102216.75;4971277;28;20030;-75
2023/05/20 06:25:11;;;;;;;5.75;4.00;;;;;;;13.84;80.15;102213.44;4971069;28;20054;-75
2023/05/20 06:27:37;;;;;;;7.80;4.10;;;;;;;13.89;80.45;102209.19;4954783;28;20039;-75
2023/05/20 06:30:03;;;;;;;10.55;4.82;;;;;;;13.91;80.48;102201.78;4936097;28;20380;-75
2023/05/20 06:32:28;;;;;;;9.35;4.22;;;;;;;13.95;80.38;102207.59;4953980;28;20038;-74
2023/05/20 06:34:53;;;;;;;5.30;4.07;;;;;;;14.00;79.38;102206.03;4953615;28;20062;-76
2023/05/20 06:37:19;;;;;;;7.22;4.10;;;;;;;13.91;78.08;102190.22;4968921;28;20393;-75
2023/05/20 06:39:46;;;;;;;13.00;4.18;;;;;;;14.01;80.50;102196.94;4952453;28;20090;-75
2023/05/20 06:42:11;;;;;;;8.05;4.85;;;;;;;14.08;78.77;102185.50;4971026;28;20035;-74
2023/05/20 06:44:37;;;;;;;10.80;4.78;;;;;;;14.12;78.66;102192.13;4969479;28;20035;-75
2023/05/20 06:47:02;;;;;;;5.55;4.10;;;;;;;14.21;78.47;102193.72;4970702;28;20062;-75
2023/05/20 06:49:28;;;;;;;8.40;4.20;;;;;;;14.25;78.13;102198.53;4970699;28;22578;-75
2023/05/20 06:51:53;;;;;;;7.40;3.67;;;;;;;14.27;77.25;102192.13;4964923;28;20042;-75
2023/05/20 06:54:18;;;;;;;7.43;3.85;;;;;;;14.22;77.33;102180.09;4963675;28;20055;-75
2023/05/20 06:56:44;;;;;;;9.77;4.05;;;;;;;14.38;77.85;102189.81;4971346;28;20513;-75
2023/05/20 06:59:09;;;;;;;5.78;3.55;;;;;;;14.45;75.88;102181.81;4971421;28;20046;-74
2023/05/20 07:01:35;;;;;;;8.40;5.88;;;;;;;14.51;76.25;102174.84;4971308;28;20041;-75
2023/05/20 07:04:00;;;;;;;6.47;3.60;;;;;;;14.54;76.37;102174.50;4953850;28;20061;-76
2023/05/20 07:06:25;;;;;;;6.95;3.75;;;;;;;14.60;73.94;102179.13;4953778;28;20038;-75
2023/05/20 07:08:51;;;;;;;8.63;3.90;;;;;;;14.65;74.90;102179.38;4937497;28;20031;-75
2023/05/20 07:11:16;;;;;;;6.13;4.13;;;;;;;14.65;73.83;102177.50;4953917;28;20043;-76
2023/05/20 07:13:42;;;;;;;6.45;4.03;;;;;;;14.73;73.24;102176.56;4954526;28;20038;-74
2023/05/20 07:16:07;;;;;;;6.20;3.75;;;;;;;14.78;75.21;102176.81;4971932;28;20121;-74
2023/05/20 07:18:32;;;;;;;7.65;3.67;;;;;;;14.84;73.47;102176.03;4972330;28;20058;-74
2023/05/20 07:20:59;;;;;;;6.78;3.40;;;;;;;14.88;73.53;102182.69;4989499;28;20035;-76
2023/05/20 07:23:25;;;;;;;9.55;4.65;;;;;;;14.99;74.28;102180.53;4989319;28;20030;-74
2023/05/20 07:25:52;;;;;;;10.60;3.53;;;;;;;15.04;72.85;102180.78;4965166;28;20038;-75
2023/05/20 07:28:21;;;;;;;16.30;4.50;;;;;;;15.13;73.41;102172.38;4970768;28;20038;-75
2023/05/20 07:30:49;;;;;;;7.15;4.05;;;;;;;15.21;72.25;102162.50;4970394;28;20056;-74
2023/05/20 07:33:16;;;;;;;10.68;4.38;;;;;;;15.17;71.46;102169.28;4970784;28;20048;-74
2023/05/20 07:35:42;;;;;;;6.78;3.40;;;;;;;15.25;70.97;102164.63;4970777;28;20534;-74
2023/05/20 07:38:07;;;;;;;6.40;4.47;;;;;;;15.30;71.23;102164.84;4985062;28;20101;-74
2023/05/20 07:40:33;;;;;;;7.70;3.80;;;;;;;15.41;70.44;102166.19;4971793;28;20053;-75
2023/05/20 07:42:58;;;;;;;5.85;4.45;;;;;;;15.43;69.82;102166.81;4989494;28;20485;-75
2023/05/20 07:45:23;;;;;;;8.75;4.05;;;;;;;15.37;70.19;102148.75;4989269;28;20038;-73
2023/05/20 07:47:49;;;;;;;5.65;3.70;;;;;;;15.43;69.81;102145.31;4989294;28;20049;-73
2023/05/20 07:50:14;;;;;;;7.63;3.85;;;;;;;15.52;69.17;102167.47;4985415;28;20050;-73
2023/05/20 07:52:39;;;;;;;8.10;4.30;;;;;;;15.61;70.57;102168.16;4979809;28;20033;-71
2023/05/20 07:55:06;;;;;;;8.40;3.90;;;;;;;15.62;69.14;102154.50;4979753;28;20557;-70
2023/05/20 07:57:31;;;;;;;5.18;3.92;;;;;;;15.65;68.88;102145.22;4981171;28;20134;-70
2023/05/20 07:59:56;;;;;;;8.73;4.03;;;;;;;15.74;68.99;102152.13;4980370;28;20105;-69
2023/05/20 08:02:22;;;;;;;4.80;3.33;;;;;;;15.76;68.72;102153.56;4980340;28;20408;-71
2023/05/20 08:04:47;;;;;;;6.40;3.38;;;;;;;15.90;69.99;102153.63;4980124;28;20022;-71
2023/05/20 08:07:12;;;;;;;6.28;3.38;;;;;;;16.17;67.65;102141.13;4980495;28;20112;-70
2023/05/20 08:09:38;;;;;;;10.25;4.25;;;;;;;16.53;66.86;102132.75;4980411;28;20120;-71
2023/05/20 08:12:03;;;;;;;8.55;3.47;;;;;;;18.21;61.73;102142.22;4980106;28;20069;-71
2023/05/20 08:14:29;;;;;;;4.28;3.10;;;;;;;19.73;53.48;102133.94;4980708;28;20034;-70
2023/05/20 08:16:54;;;;;;;5.53;3.33;;;;;;;20.99;49.94;102143.00;4980115;28;20474;-71
2023/05/20 08:19:19;;;;;;;6.05;3.25;;;;;;;22.05;48.32;102134.72;4980831;28;20080;-71
2023/05/20 08:21:45;;;;;;;4.95;3.10;;;;;;;22.67;44.97;102155.72;4983193;28;20045;-72
2023/05/20 08:24:10;;;;;;;6.82;3.08;;;;;;;23.27;42.24;102137.94;4983844;28;20092;-72
2023/05/20 08:26:36;;;;;;;12.05;3.65;;;;;;;22.79;43.25;102134.69;4983775;28;20031;-71
2023/05/20 08:29:01;;;;;;;7.90;3.97;;;;;;;22.97;43.90;102139.91;4983831;28;20041;-71
2023/05/20 08:31:27;;;;;;;4.18;3.15;;;;;;;23.52;41.76;102135.53;4983426;28;20034;-72
2023/05/20 08:33:52;;;;;;;3.22;2.92;;;;;;;23.57;42.28;102130.16;4965992;28;20038;-71
2023/05/20 08:36:18;;;;;;;9.70;4.20;;;;;;;23.81;39.97;102133.47;4944956;28;20052;-71
2023/05/20 08:38:43;;;;;;;5.20;3.42;;;;;;;23.99;39.07;102132.31;4983339;28;20452;-70
2023/05/20 08:41:09;;;;;;;5.93;2.97;;;;;;;24.16;39.50;102134.97;4967902;28;20081;-71
2023/05/20 08:43:35;;;;;;;8.65;4.97;;;;;;;24.20;38.96;102127.09;4983496;28;20093;-71
2023/05/20 08:46:04;;;;;;;8.75;2.90;;;;;;;24.28;38.07;102121.16;4983330;28;20030;-70
2023/05/20 08:48:30;;;;;;;7.47;3.50;;;;;;;23.87;39.55;102120.75;4983488;28;20450;-70
2023/05/20 08:50:56;;;;;;;3.80;2.65;;;;;;;23.74;40.30;102113.78;4982642;28;20022;-70
2023/05/20 08:53:22;;;;;;;6.75;3.90;;;;;;;23.52;39.64;102121.09;4983345;28;20069;-70
2023/05/20 08:55:53;;;;;;;5.20;3.33;;;;;;;22.35;41.92;102109.19;4983358;28;20086;-70
2023/05/20 08:58:20;;;;;;;3.90;3.30;;;;;;;20.73;45.05;102111.72;4983325;28;20041;-72
2023/05/20 09:00:45;;;;;;;6.65;3.03;;;;;;;19.65;49.03;102114.22;4981802;28;20032;-71
2023/05/20 09:03:11;;;;;;;5.28;3.35;;;;;;;18.95;49.62;102130.75;4982724;28;20015;-71
2023/05/20 09:05:36;;;;;;;6.50;3.13;;;;;;;18.48;52.19;102110.50;4963991;28;20061;-71
2023/05/20 09:08:11;;;;;;;4.75;3.33;;;;;;;18.08;52.21;102108.88;4983073;28;20116;-71
2023/05/20 09:10:38;;;;;;;5.97;3.47;;;;;;;17.95;54.67;102133.22;4982319;28;20504;-71
2023/05/20 09:13:05;;;;;;;6.57;4.07;;;;;;;17.82;54.64;102111.69;4983598;28;20631;-70
2023/05/20 09:15:31;;;;;;;7.45;4.15;;;;;;;17.69;55.22;102107.16;4982623;28;20157;-71
2023/05/20 09:18:01;;;;;;;8.70;3.47;;;;;;;17.56;55.81;102099.91;4982308;28;20034;-70
2023/05/20 09:20:30;;;;;;;4.05;3.10;;;;;;;17.73;57.51;102108.34;4982702;28;20092;-70
2023/05/20 09:23:01;;;;;;;13.05;4.20;;;;;;;17.80;56.89;102116.47;4983493;28;20030;-72
2023/05/20 09:25:27;;;;;;;5.40;3.67;;;;;;;17.80;56.78;102113.78;4982847;28;20034;-71
2023/05/20 09:27:53;;;;;;;6.22;2.90;;;;;;;17.98;57.19;102105.81;4983211;28;20027;-70
2023/05/20 09:30:19;;;;;;;7.40;3.33;;;;;;;18.03;55.68;102103.28;4981728;28;20019;-71
2023/05/20 09:32:51;;;;;;;9.00;3.80;;;;;;;18.05;55.85;102078.75;4983246;28;20110;-70
2023/05/20 09:35:18;;;;;;;5.35;3.45;;;;;;;18.08;56.29;102087.28;4982106;28;20504;-70
2023/05/20 09:37:46;;;;;;;5.20;3.55;;;;;;;17.87;56.26;102087.59;4983562;28;20030;-72
2023/05/20 09:40:14;;;;;;;5.18;3.45;;;;;;;17.84;55.90;102091.56;4981676;28;20428;-70
2023/05/20 09:42:46;;;;;;;8.13;3.38;;;;;;;17.94;56.63;102091.88;4982538;28;20080;-71
2023/05/20 09:45:12;;;;;;;4.90;2.95;;;;;;;18.05;55.21;102084.16;4982409;28;20030;-70
2023/05/20 09:47:41;;;;;;;7.85;3.38;;;;;;;18.06;55.56;102094.75;4967822;28;20153;-70
2023/05/20 09:50:08;;;;;;;4.97;3.13;;;;;;;17.94;55.05;102080.28;4982227;28;20072;-71
2023/05/20 09:52:36;;;;;;;6.68;3.67;;;;;;;18.06;56.79;102092.06;4982426;28;20046;-71
2023/05/20 09:55:04;;;;;;;4.68;2.78;;;;;;;18.20;53.94;102100.91;4982186;28;20038;-72
2023/05/20 09:57:33;;;;;;;6.00;3.42;;;;;;;18.20;55.65;102087.41;4982580;28;20034;-71
2023/05/20 09:59:58;;;;;;;6.70;3.45;;;;;;;18.24;54.83;102093.22;4982221;28;20548;-71
2023/05/20 10:02:24;;;;;;;5.35;2.88;;;;;;;18.26;53.98;102094.66;4981410;28;20030;-71
2023/05/20 10:04:51;;;;;;;4.05;2.70;;;;;;;18.29;53.95;102088.81;4981695;28;20084;-72
2023/05/20 10:07:39;;;;;;;6.50;2.65;;;;;;;18.41;54.50;102080.81;4982092;28;20053;-72
2023/05/20 10:10:43;;;;;;;5.45;3.45;;;;;;;18.45;54.69;102078.53;4982088;28;20466;-71
2023/05/20 10:13:12;;;;;;;4.10;2.63;;;;;;;18.48;53.12;102086.19;4966108;28;20390;-71
2023/05/20 10:16:11;;;;;;;4.60;2.80;;;;;;;18.52;52.99;102069.31;4982097;28;20030;-71
2023/05/20 10:18:59;;;;;;;6.07;2.88;;;;;;;18.55;53.05;102068.06;4981309;28;20023;-72
2023/05/20 10:21:25;;;;;;;3.67;2.50;;;;;;;18.72;52.43;102068.31;4981325;28;20027;-72
2023/05/20 10:23:51;;;;;;;12.48;3.17;;;;;;;18.78;53.11;102054.75;4982121;28;20022;-70
2023/05/20 10:26:17;;;;;;;6.38;3.58;;;;;;;18.93;53.68;102065.25;4981779;28;20096;-71
2023/05/20 10:28:43;;;;;;;6.05;2.50;;;;;;;18.97;52.99;102052.13;4981354;28;20030;-71
2023/05/20 10:31:16;;;;;;;3.70;2.78;;;;;;;19.06;52.81;102061.59;4980506;28;20108;-71
2023/05/20 10:33:43;;;;;;;8.20;3.03;;;;;;;18.91;52.85;102064.63;4966092;28;20048;-71
2023/05/20 10:36:09;;;;;;;4.15;3.03;;;;;;;18.86;51.19;102050.94;4967295;28;20500;-73
2023/05/20 10:38:35;;;;;;;5.95;3.08;;;;;;;18.79;54.59;102051.03;4981471;28;20059;-72
2023/05/20 10:41:10;;;;;;;4.45;2.70;;;;;;;18.83;52.64;102046.81;4963343;28;20030;-70
2023/05/20 10:43:35;;;;;;;4.68;3.10;;;;;;;18.85;53.29;102038.50;4980213;28;20026;-71
2023/05/20 10:46:00;;;;;;;5.18;2.90;;;;;;;18.94;51.64;102042.59;4980375;28;20030;-68
2023/05/20 10:48:31;;;;;;;8.88;3.30;;;;;;;19.07;52.44;102027.25;4981436;28;20044;-70
2023/05/20 10:51:04;;;;;;;4.60;2.50;;;;;;;18.90;52.45;102035.13;4981278;28;20089;-71
2023/05/20 10:53:38;;;;;;;6.50;2.63;;;;;;;18.94;52.78;102039.03;4981031;28;20324;-72
2023/05/20 10:56:05;;;;;;;4.78;2.63;;;;;;;19.11;54.29;102036.59;4981339;28;20648;-70
2023/05/20 10:58:37;;;;;;;7.75;3.05;;;;;;;19.45;52.84;102029.72;4981438;28;20433;-70
2023/05/20 11:01:03;;;;;;;4.30;2.42;;;;;;;19.72;51.18;102030.25;4966047;28;20026;-70
2023/05/20 11:03:29;;;;;;;3.88;2.80;;;;;;;19.74;49.97;102038.97;4981429;28;20037;-71
2023/05/20 11:05:54;;;;;;;5.30;2.58;;;;;;;19.70;50.82;102027.78;4966089;28;20474;-70
2023/05/20 11:08:20;;;;;;;12.77;2.47;;;;;;;19.73;51.87;102015.66;4981555;28;20030;-71
2023/05/20 11:10:45;;;;;;;6.05;2.67;;;;;;;19.78;51.26;102014.97;4980720;28;20363;-70
2023/05/20 11:13:12;;;;;;;3.40;2.83;;;;;;;19.81;50.68;102012.63;4981417;28;20077;-72
2023/05/20 11:15:38;;;;;;;4.43;2.78;;;;;;;19.77;49.89;102003.31;4981029;28;20036;-72
2023/05/20 11:18:03;;;;;;;6.28;3.25;;;;;;;19.69;50.19;102007.16;4981250;28;20121;-72